Terminal Aerodrome Forecast
Issued by NWS Pueblo, CO

Home | Current Version | Previous Version | Text Only | Print | Product List | Glossary On
Versions: 1 2 3 4 5 6 7 8 9 10 11 12 13 14 15 16 17 18 19 20 21 22 23 24 25 26 27 28 29 30 31 32
000
FTUS45 KPUB 301723
TAFALS
TAF
KALS 301723Z 3018/3118 VRB04KT P6SM SCT025 OVC060
      TEMPO 3018/3020 5SM -RASN BR BKN022
     FM302000 VRB04KT P6SM VCSH SCT025 OVC060
      TEMPO 3020/3024 6SM -RA BR BKN035
     FM310300 VRB04KT 5SM -SN BR OVC025
     FM311200 VRB04KT 5SM BR SCT025 OVC040=

USA.gov is the U.S. government's official web portal to all federal, state and local government web resources and services.